Data for 03/03/2017

Time Sea-Level Adjusted Pressure Absolute Pressure Temperature Relative Humidity Dew Point   
(mb) (inHg) (mb) (inHg) (C) (F) (%) (C) (F)
00:05 1020 30.12 849 25.07 4.4 39.9 25 -14 6.9
00:10 1020 30.12 849 25.07 4.4 40 25 -13.9 7
00:15 1020 30.12 849 25.07 4.3 39.8 25 -13.9 7
00:20 1020 30.12 849 25.07 4.3 39.8 25 -13.9 6.9
00:25 1020 30.12 849 25.07 4.4 39.8 26 -13.7 7.4
00:30 1020 30.12 849 25.07 4.2 39.6 27 -13.3 8.1
00:35 1020 30.12 849 25.07 4.1 39.4 26 -13.9 7
00:40 1020 30.12 849 25.07 4.2 39.6 26 -13.9 7
00:45 1020 30.12 849 25.07 4.2 39.5 27 -13.4 7.9
00:50 1020 30.12 849 25.07 3.9 39.1 28 -13.2 8.3
00:55 1020 30.12 849 25.07 3.9 39 28 -13.1 8.4
01:00 1020 30.12 849 25.07 3.8 38.9 28 -13.1 8.5
01:05 1020 30.12 849 25.07 3.7 38.7 29 -12.9 8.8
01:10 1020 30.12 849 25.07 3.6 38.6 28 -13.3 8
01:15 1020 30.12 849 25.07 3.7 38.7 27 -13.8 7.2
01:20 1020 30.12 849 25.07 3.9 39 27 -13.7 7.3
01:25 1020 30.12 849 25.07 4 39.2 26 -13.7 7.4
01:30 1020 30.12 849 25.07 3.8 38.9 27 -13.4 7.8
01:35 1020 30.12 849 25.07 3.8 38.9 27 -13.8 7.2
01:40 1020 30.12 849 25.07 4 39.1 26 -14 6.9
01:45 1020 30.12 849 25.07 4.1 39.4 26 -13.9 7
01:50 1020 30.12 849 25.07 4.1 39.4 26 -13.9 7
01:55 1020 30.12 849 25.07 4.1 39.4 26 -13.7 7.3
02:00 1019 30.09 849 25.07 4 39.3 27 -13.5 7.7
02:05 1019 30.09 849 25.07 4 39.1 28 -13.2 8.3
02:10 1019 30.09 849 25.07 3.9 39.1 27 -13.2 8.2
02:15 1019 30.09 849 25.07 3.9 39 27 -13.4 7.8
02:20 1019 30.09 849 25.07 3.9 39 27 -13.5 7.8
02:25 1019 30.09 848 25.04 4 39.1 25 -14.4 6.1
02:30 1019 30.09 848 25.04 4.3 39.8 23 -15 5.1
02:35 1019 30.09 848 25.04 4.7 40.4 23 -14.7 5.5
02:40 1019 30.09 848 25.04 4.9 40.9 21 -15.6 4
02:45 1019 30.09 848 25.04 5.1 41.2 21 -15.7 3.8
02:50 1019 30.09 848 25.04 5.2 41.3 21 -15.3 4.5
02:55 1019 30.09 848 25.04 5 40.9 22 -14.9 5.1
03:00 1019 30.09 848 25.04 4.8 40.7 22 -15.3 4.5
03:05 1019 30.09 848 25.04 4.9 40.8 22 -15 5
03:10 1019 30.09 848 25.04 4.9 40.9 21 -15.5 4
03:15 1019 30.09 848 25.04 5 41 21 -15.9 3.5
03:20 1019 30.09 848 25.04 5.1 41.2 21 -15.5 4
03:25 1019 30.09 848 25.04 5 41 22 -14.9 5.1
03:30 1019 30.09 848 25.04 4.9 40.7 22 -15 5
03:35 1019 30.09 848 25.04 4.9 40.8 22 -15.3 4.4
03:40 1019 30.09 848 25.04 4.9 40.8 22 -15.2 4.7
03:45 1019 30.09 848 25.04 4.7 40.5 22 -15.2 4.7
03:50 1019 30.09 848 25.04 4.7 40.4 23 -14.6 5.7
03:55 1019 30.09 848 25.04 4.6 40.3 24 -14.6 5.8
04:00 1019 30.09 848 25.04 4.5 40 24 -14.6 5.8
04:05 1019 30.09 848 25.04 4.4 39.9 23 -14.9 5.2
04:10 1019 30.09 848 25.04 4.4 39.9 24 -14.7 5.6
04:15 1019 30.09 848 25.04 4.4 39.9 24 -14.3 6.2
04:20 1019 30.09 848 25.04 4.2 39.5 26 -13.6 7.4
04:25 1019 30.09 848 25.04 4.1 39.3 26 -14 6.8
04:30 1019 30.09 848 25.04 4.1 39.4 25 -14.1 6.6
04:35 1019 30.09 848 25.04 4.2 39.5 24 -14.6 5.7
04:40 1019 30.09 848 25.04 4.2 39.5 24 -14.8 5.3
04:45 1019 30.09 848 25.04 4.2 39.6 24 -14.5 5.9
04:50 1019 30.09 848 25.04 4.2 39.5 25 -14.4 6.1
04:55 1019 30.09 848 25.04 4.3 39.7 24 -14.5 5.9
05:00 1019 30.09 848 25.04 4.3 39.7 25 -14.1 6.6
05:05 1019 30.09 848 25.04 4.2 39.6 25 -14.2 6.4
05:10 1019 30.09 848 25.04 4.2 39.6 25 -14.2 6.4
05:15 1019 30.09 848 25.04 4.2 39.5 25 -14 6.9
05:20 1019 30.09 848 25.04 4.3 39.7 24 -14.4 6
05:25 1019 30.09 848 25.04 4.4 39.9 24 -14.5 6
05:30 1019 30.09 848 25.04 4.6 40.3 23 -15 5
05:35 1019 30.09 848 25.04 4.6 40.4 24 -14.5 5.9
05:40 1019 30.09 848 25.04 4.6 40.2 25 -14.1 6.6
05:45 1019 30.09 848 25.04 4.4 39.9 24 -14.6 5.7
05:50 1019 30.09 848 25.04 4.4 40 24 -14.3 6.3
05:55 1019 30.09 848 25.04 4.5 40.1 24 -14.6 5.8
06:00 1019 30.09 848 25.04 4.5 40 25 -14.2 6.5
06:05 1019 30.09 848 25.04 4.2 39.6 25 -14 6.8
06:10 1019 30.09 848 25.04 4.1 39.4 27 -13.4 7.9
06:15 1019 30.09 848 25.04 4 39.1 28 -12.9 8.7
06:20 1019 30.09 848 25.04 3.9 39 27 -13.4 7.9
06:25 1019 30.09 848 25.04 4 39.2 27 -13.5 7.7
06:30 1019 30.09 849 25.07 4.1 39.4 27 -13.4 7.9
06:35 1019 30.09 849 25.07 4.1 39.5 27 -13.3 8
06:40 1020 30.12 849 25.07 4.2 39.6 26 -13.7 7.4
06:45 1020 30.12 849 25.07 4.2 39.6 26 -13.6 7.5
06:50 1020 30.12 849 25.07 4.3 39.7 27 -13.2 8.3
06:55 1019 30.09 849 25.07 4.2 39.6 28 -12.9 8.9
07:00 1019 30.09 849 25.07 4.2 39.6 27 -13.3 8.1
07:05 1020 30.12 849 25.07 4.3 39.8 28 -12.7 9.1
07:10 1020 30.12 849 25.07 4.4 39.9 28 -12.7 9.1
07:15 1020 30.12 849 25.07 4.4 40 28 -12.8 9
07:20 1020 30.12 849 25.07 4.4 40 28 -12.7 9.2
07:25 1020 30.12 849 25.07 4.6 40.3 28 -12.4 9.6
07:30 1020 30.12 849 25.07 4.8 40.6 27 -12.7 9.1
07:35 1020 30.12 849 25.07 4.9 40.9 27 -12.4 9.6
07:40 1020 30.12 849 25.07 5 40.9 27 -12.4 9.6
07:45 1019 30.09 849 25.07 5 40.9 27 -12.6 9.3
07:50 1019 30.09 849 25.07 5.1 41.2 27 -12.4 9.7
07:55 1019 30.09 849 25.07 5.2 41.4 27 -12.2 10.1
08:00 1019 30.09 849 25.07 5.4 41.7 28 -11.9 10.7
08:05 1019 30.09 849 25.07 5.6 42 27 -11.9 10.6
08:10 1019 30.09 849 25.07 5.7 42.3 27 -11.8 10.7
08:15 1019 30.09 849 25.07 5.8 42.4 28 -11.5 11.3
08:20 1019 30.09 849 25.07 5.8 42.4 28 -11.4 11.6
08:25 1019 30.09 849 25.07 5.9 42.6 27 -11.7 10.9
08:30 1019 30.09 849 25.07 6.6 43.9 27 -11.1 12.1
08:35 1019 30.09 849 25.07 6.8 44.2 26 -11.6 11.1
08:40 1019 30.09 848 25.04 6.6 43.9 26 -11.4 11.5
08:45 1019 30.09 849 25.07 6.8 44.2 26 -11.4 11.5
08:50 1019 30.09 849 25.07 7.1 44.8 26 -11 12.2
08:55 1019 30.09 848 25.04 7.5 45.5 25 -11.2 11.8
09:00 1019 30.09 848 25.04 7.8 46.1 25 -11.2 11.9
09:05 1019 30.09 848 25.04 7.9 46.2 25 -11.2 11.8
09:10 1019 30.09 848 25.04 8 46.4 23 -11.7 11
09:15 1019 30.09 848 25.04 8.3 46.9 24 -11.4 11.5
09:20 1019 30.09 848 25.04 8.4 47 24 -11 12.2
09:25 1019 30.09 848 25.04 8.7 47.6 22 -11.8 10.8
09:30 1019 30.09 848 25.04 8.9 48 23 -11.4 11.5
09:35 1019 30.09 848 25.04 9 48.2 22 -11.8 10.7
09:40 1019 30.09 848 25.04 9.1 48.4 22 -11.3 11.7
09:45 1019 30.09 848 25.04 9.5 49.1 21 -11.9 10.6
09:50 1019 30.09 848 25.04 9.6 49.2 21 -11.8 10.7
09:55 1019 30.09 848 25.04 9.1 48.5 24 -10.4 13.3
10:00 1019 30.09 848 25.04 7.8 46 26 -10.6 12.9
10:05 1019 30.09 848 25.04 7.7 45.9 25 -11 12.1
10:10 1019 30.09 848 25.04 7.3 45.1 26 -10.9 12.5
10:15 1019 30.09 848 25.04 7.1 44.9 26 -11.3 11.6
10:20 1019 30.09 848 25.04 7.5 45.5 24 -11.6 11
10:25 1019 30.09 848 25.04 7.2 44.9 27 -10.8 12.5
10:30 1019 30.09 848 25.04 7.9 46.2 24 -11.4 11.5
10:35 1019 30.09 848 25.04 9.4 48.9 22 -11.5 11.4
10:40 1019 30.09 848 25.04 9.8 49.6 23 -10.6 12.9
10:45 1019 30.09 848 25.04 9.8 49.7 23 -10.3 13.5
10:50 1019 30.09 848 25.04 9.5 49.1 23 -10.8 12.6
10:55 1019 30.09 848 25.04 9 48.1 22 -11.7 11
11:00 1019 30.09 848 25.04 9.3 48.7 23 -10.9 12.4
11:05 1019 30.09 848 25.04 8.7 47.6 24 -10.6 12.8
11:10 1019 30.09 848 25.04 8.3 46.9 24 -11.2 11.9
11:15 1018 30.06 848 25.04 8.5 47.2 23 -11.5 11.2
11:20 1018 30.06 848 25.04 9.6 49.3 22 -11.3 11.7
11:25 1018 30.06 848 25.04 10.5 50.9 21 -10.7 12.8
11:30 1018 30.06 848 25.04 10.1 50.1 23 -10.3 13.5
11:35 1018 30.06 848 25.04 9.5 49.1 21 -11.5 11.3
11:40 1018 30.06 848 25.04 9.5 49.1 21 -11.8 10.8
11:45 1018 30.06 847 25.01 9.9 49.7 22 -11 12.2
11:50 1018 30.06 847 25.01 10.9 51.6 20 -10.9 12.4
11:55 1018 30.06 847 25.01 10.1 50.1 22 -10.7 12.8
12:00 1018 30.06 847 25.01 9.6 49.2 22 -10.9 12.4
12:05 1018 30.06 847 25.01 10.8 51.5 21 -10.9 12.3
12:10 1018 30.06 847 25.01 11.6 52.9 18 -12.1 10.3
12:15 1018 30.06 847 25.01 11.5 52.8 19 -11.5 11.3
12:20 1018 30.06 847 25.01 11 51.8 21 -10.8 12.5
12:25 1018 30.06 847 25.01 10.7 51.3 23 -9.7 14.5
12:30 1018 30.06 847 25.01 11.8 53.3 19 -11.3 11.7
12:35 1018 30.06 847 25.01 11.9 53.4 17 -12.3 9.8
12:40 1017 30.03 847 25.01 11.6 52.8 18 -12 10.4
12:45 1017 30.03 847 25.01 11.8 53.3 17 -12.4 9.7
12:50 1017 30.03 847 25.01 11.8 53.2 17 -12.6 9.3
12:55 1017 30.03 846 24.98 11.6 52.9 18 -11.9 10.6
13:00 1017 30.03 846 24.98 11.7 53.1 18 -11.8 10.8
13:05 1017 30.03 846 24.98 11.8 53.3 17 -12.7 9.2
13:10 1017 30.03 846 24.98 11.8 53.2 17 -12.2 10
13:15 1017 30.03 846 24.98 12.1 53.7 17 -12.6 9.4
13:20 1017 30.03 846 24.98 12.7 54.8 16 -12.7 9.2
13:25 1017 30.03 846 24.98 12.4 54.2 16 -12.4 9.6
13:30 1017 30.03 846 24.98 12.7 54.8 17 -11.5 11.2
13:35 1016 30 846 24.98 12.7 54.9 16 -12.2 10.1
13:40 1016 30 846 24.98 12.3 54.1 16 -12.7 9.2
13:45 1016 30 845 24.95 12.7 54.8 17 -11.4 11.5
13:50 1016 30 845 24.95 12.2 53.9 18 -11.3 11.7
13:55 1016 30 845 24.95 12.3 54.1 19 -10.8 12.5
14:00 1016 30 845 24.95 12.6 54.8 18 -11.2 11.8
14:05 1016 30 845 24.95 13.1 55.5 16 -12.5 9.4
14:10 1016 30 845 24.95 13 55.5 18 -10.7 12.7
14:15 1016 30 845 24.95 13.1 55.6 18 -10.6 13
14:20 1016 30 845 24.95 13.1 55.6 18 -10.8 12.6
14:25 1016 30 845 24.95 12.7 54.9 16 -12.3 9.8
14:30 1015 29.97 845 24.95 13.3 56 18 -10.2 13.7
14:35 1015 29.97 845 24.95 13.8 56.9 17 -10.8 12.6
14:40 1015 29.97 845 24.95 13.4 56.2 17 -10.9 12.4
14:45 1015 29.97 845 24.95 13.4 56 17 -11.2 11.9
14:50 1015 29.97 844 24.92 13.2 55.7 19 -9.9 14.2
14:55 1015 29.97 844 24.92 13.3 55.9 15 -12.7 9.2
15:00 1015 29.97 844 24.92 12.8 55 17 -11.6 11.2
15:05 1015 29.97 844 24.92 13 55.4 18 -11 12.3
15:10 1015 29.97 844 24.92 13.4 56.1 17 -10.9 12.4
15:15 1015 29.97 844 24.92 13.2 55.7 17 -11.1 12
15:20 1015 29.97 844 24.92 12.3 54.1 17 -12.3 9.8
15:25 1015 29.97 844 24.92 13.3 55.9 18 -10.3 13.4
15:30 1015 29.97 844 24.92 12.5 54.5 19 -10.5 13.1
15:35 1015 29.97 844 24.92 11.7 53 20 -10.9 12.4
15:40 1015 29.97 844 24.92 11.5 52.6 20 -10.9 12.3
15:45 1015 29.97 844 24.92 11.1 52 21 -10.3 13.4
15:50 1015 29.97 844 24.92 11 51.8 21 -10.6 12.8
15:55 1015 29.97 844 24.92 10.8 51.4 21 -10.5 13.2
16:00 1015 29.97 844 24.92 10.6 51.1 22 -10.4 13.3
16:05 1015 29.97 844 24.92 10.4 50.6 22 -10.2 13.6
16:10 1015 29.97 844 24.92 10.3 50.5 23 -10.1 13.8
16:15 1015 29.97 844 24.92 10.6 51 23 -9.5 14.8
16:20 1014 29.94 844 24.92 10.2 50.3 24 -9.4 15
16:25 1014 29.94 844 24.92 10.1 50.2 25 -9.2 15.5
16:30 1014 29.94 844 24.92 10.2 50.4 23 -9.8 14.3
16:35 1014 29.94 844 24.92 10.2 50.3 24 -9.4 15.1
16:40 1014 29.94 844 24.92 10 50.1 24 -9.6 14.7
16:45 1014 29.94 843 24.89 9.8 49.7 25 -9.4 15.1
16:50 1014 29.94 843 24.89 9.8 49.6 24 -9.6 14.7
16:55 1014 29.94 843 24.89 9.6 49.3 24 -10.1 13.9
17:00 1014 29.94 843 24.89 9.6 49.3 25 -9.6 14.8
17:05 1014 29.94 843 24.89 9.9 49.7 25 -9.5 14.9
17:10 1014 29.94 843 24.89 10.2 50.3 23 -10.1 13.8
17:15 1014 29.94 843 24.89 10.2 50.3 23 -9.9 14.1
17:20 1014 29.94 843 24.89 9.9 49.8 24 -9.7 14.5
17:25 1014 29.94 843 24.89 9.6 49.3 25 -9.7 14.5
17:30 1014 29.94 843 24.89 9.1 48.3 26 -9.3 15.3
17:35 1014 29.94 843 24.89 8.7 47.7 24 -10.5 13
17:40 1014 29.94 843 24.89 8.8 47.9 25 -10.2 13.6
17:45 1014 29.94 843 24.89 8.6 47.4 26 -10.1 13.8
17:50 1014 29.94 843 24.89 8.4 47.1 27 -9.4 15.2
17:55 1014 29.94 843 24.89 7.9 46.2 28 -9.6 14.7
18:00 1014 29.94 843 24.89 7.9 46.1 28 -9.7 14.5
18:05 1014 29.94 843 24.89 7.6 45.7 27 -10.2 13.6
18:10 1014 29.94 843 24.89 7.8 46 26 -10.8 12.6
18:15 1014 29.94 843 24.89 7.7 45.9 27 -10.1 13.9
18:20 1014 29.94 843 24.89 7.6 45.6 25 -11 12.2
18:25 1014 29.94 843 24.89 7.7 45.9 26 -10.4 13.2
18:30 1014 29.94 843 24.89 7.7 45.9 26 -10.9 12.5
18:35 1014 29.94 843 24.89 7.7 45.9 27 -10.4 13.4
18:40 1013 29.91 843 24.89 7.6 45.7 26 -10.6 12.9
18:45 1013 29.91 843 24.89 7.5 45.5 27 -10.2 13.7
18:50 1013 29.91 843 24.89 7.3 45.2 28 -10.2 13.7
18:55 1013 29.91 842 24.86 7.5 45.5 25 -11.3 11.7
19:00 1013 29.91 842 24.86 7.7 45.9 25 -11.1 12.1
19:05 1013 29.91 842 24.86 7.7 45.9 26 -10.8 12.6
19:10 1013 29.91 842 24.86 7.4 45.4 28 -10 14
19:15 1013 29.91 842 24.86 6.7 44 30 -9.7 14.5
19:20 1013 29.91 842 24.86 6.4 43.5 30 -10 14
19:25 1013 29.91 842 24.86 6.3 43.4 29 -10.2 13.6
19:30 1013 29.91 842 24.86 6.5 43.7 30 -10 14.1
19:35 1013 29.91 842 24.86 6.3 43.3 31 -9.8 14.3
19:40 1013 29.91 842 24.86 6.1 43.1 31 -9.7 14.5
19:45 1013 29.91 842 24.86 6 42.7 31 -9.7 14.5
19:50 1013 29.91 842 24.86 5.7 42.3 33 -9.3 15.2
19:55 1013 29.91 842 24.86 5.5 41.8 33 -9.6 14.7
20:00 1013 29.91 842 24.86 5.5 41.9 33 -9.4 15
20:05 1013 29.91 842 24.86 5.5 41.8 33 -9.4 15.1
20:10 1013 29.91 842 24.86 5.5 41.9 31 -10.4 13.3
20:15 1013 29.91 842 24.86 5.8 42.5 33 -9.3 15.2
20:20 1013 29.91 842 24.86 5.5 41.9 33 -9.7 14.5
20:25 1013 29.91 842 24.86 5.2 41.4 33 -9.8 14.4
20:30 1013 29.91 842 24.86 5.2 41.4 33 -9.6 14.7
20:35 1013 29.91 842 24.86 5.1 41.1 35 -9.2 15.4
20:40 1013 29.91 842 24.86 5 40.9 37 -8.7 16.3
20:45 1013 29.91 842 24.86 5 41 35 -9.1 15.5
20:50 1013 29.91 842 24.86 4.8 40.7 36 -9.2 15.4
20:55 1013 29.91 842 24.86 4.8 40.7 33 -10 14
21:00 1013 29.91 842 24.86 5 41 34 -9.6 14.8
21:05 1013 29.91 842 24.86 4.8 40.7 35 -9.4 15
21:10 1012 29.88 842 24.86 4.8 40.6 34 -9.7 14.5
21:15 1012 29.88 841 24.83 4.7 40.5 35 -9.4 15
21:20 1012 29.88 841 24.83 4.7 40.4 33 -10.2 13.7
21:25 1012 29.88 841 24.83 5 41 32 -10.2 13.6
21:30 1012 29.88 841 24.83 5.2 41.3 35 -9.2 15.5
21:35 1012 29.88 841 24.83 4.9 40.8 33 -10.2 13.6
21:40 1012 29.88 841 24.83 5.5 41.9 24 -13.6 7.6
21:45 1012 29.88 841 24.83 6.8 44.3 22 -13.2 8.2
21:50 1012 29.88 841 24.83 7.2 44.9 22 -12.9 8.7
21:55 1012 29.88 841 24.83 7.2 45 22 -13.1 8.4
22:00 1012 29.88 841 24.83 7.1 44.7 22 -13.1 8.4
22:05 1012 29.88 841 24.83 7 44.6 23 -12.9 8.7
22:10 1012 29.88 841 24.83 6.9 44.4 22 -13.2 8.3
22:15 1011 29.85 841 24.83 6.8 44.2 23 -12.9 8.7
22:20 1011 29.85 841 24.83 6.7 44 24 -12.7 9.1
22:25 1011 29.85 841 24.83 6.6 43.8 25 -12.2 10
22:30 1011 29.85 841 24.83 6.2 43.2 26 -12.1 10.2
22:35 1011 29.85 841 24.83 6 42.8 27 -11.8 10.7
22:40 1011 29.85 841 24.83 5.9 42.6 27 -11.7 10.9
22:45 1011 29.85 841 24.83 5.9 42.5 27 -11.8 10.8
22:50 1011 29.85 840 24.81 6.2 43.2 26 -11.8 10.8
22:55 1011 29.85 840 24.81 6.1 43 27 -11.5 11.3
23:00 1011 29.85 840 24.81 5.8 42.4 28 -11.4 11.5
23:05 1011 29.85 840 24.81 5.6 42.1 28 -11.4 11.5
23:10 1011 29.85 840 24.81 5.7 42.3 27 -11.9 10.5
23:15 1011 29.85 840 24.81 6.1 42.9 26 -11.9 10.6
23:20 1011 29.85 840 24.81 6.1 42.9 27 -11.8 10.8
23:25 1011 29.85 840 24.81 6.1 43 25 -12.3 9.9
23:30 1011 29.85 840 24.81 6.3 43.4 25 -12.2 10
23:35 1011 29.85 840 24.81 6.2 43.2 26 -12.1 10.3
23:40 1011 29.85 840 24.81 6.4 43.5 25 -12.2 10.1
23:45 1011 29.85 840 24.81 6.4 43.6 26 -11.8 10.7
23:50 1011 29.85 840 24.81 6.2 43.1 27 -11.6 11.1
23:55 1011 29.85 840 24.81 6.1 42.9 26 -12 10.3
24:00 1011 29.85 840 24.81 6.3 43.3 26 -11.7 10.9